createdAt,value
2023-04-19T00:00:09.607Z,8.05
2023-04-19T00:02:37.907Z,7.93
2023-04-19T00:05:06.407Z,7.05
2023-04-19T00:07:33.506Z,6.68
2023-04-19T00:10:00.489Z,6.97
2023-04-19T00:12:27.393Z,6.80
2023-04-19T00:14:54.187Z,6.40
2023-04-19T00:17:21.302Z,6.70
2023-04-19T00:19:48.453Z,6.75
2023-04-19T00:22:15.616Z,6.57
2023-04-19T00:24:42.589Z,6.57
2023-04-19T00:27:09.514Z,6.80
2023-04-19T00:29:36.319Z,7.13
2023-04-19T00:32:05.830Z,7.15
2023-04-19T00:34:32.964Z,7.03
2023-04-19T00:37:00.045Z,7.07
2023-04-19T00:39:26.970Z,6.97
2023-04-19T00:41:54.088Z,6.82
2023-04-19T00:44:20.974Z,6.82
2023-04-19T00:46:48.293Z,7.60
2023-04-19T00:49:18.339Z,7.00
2023-04-19T00:51:45.277Z,7.22
2023-04-19T00:54:13.356Z,7.43
2023-04-19T00:56:41.125Z,6.72
2023-04-19T00:59:08.608Z,7.20
2023-04-19T01:01:38.682Z,7.37
2023-04-19T01:04:06.420Z,7.43
2023-04-19T01:06:34.789Z,6.97
2023-04-19T01:09:01.979Z,7.07
2023-04-19T01:11:29.394Z,7.78
2023-04-19T01:13:56.667Z,7.63
2023-04-19T01:16:24.525Z,7.95
2023-04-19T01:18:51.685Z,7.70
2023-04-19T01:21:18.649Z,7.60
2023-04-19T01:23:45.732Z,7.68
2023-04-19T01:26:12.576Z,7.70
2023-04-19T01:28:39.448Z,7.85
2023-04-19T01:31:06.566Z,7.45
2023-04-19T01:33:33.444Z,7.88
2023-04-19T01:36:00.258Z,7.40
2023-04-19T01:38:27.078Z,8.30
2023-04-19T01:40:56.736Z,7.72
2023-04-19T01:43:24.926Z,7.95
2023-04-19T01:45:51.754Z,8.57
2023-04-19T01:48:19.731Z,8.40
2023-04-19T01:50:46.583Z,8.70
2023-04-19T01:53:13.513Z,7.93
2023-04-19T01:55:40.372Z,8.05
2023-04-19T01:58:07.343Z,8.15
2023-04-19T02:00:34.371Z,9.23
2023-04-19T02:05:31.398Z,8.80
2023-04-19T02:08:01.284Z,8.68
2023-04-19T02:10:30.778Z,8.30
2023-04-19T02:12:57.595Z,8.70
2023-04-19T02:15:24.413Z,9.02
2023-04-19T02:17:51.324Z,9.15
2023-04-19T02:20:19.364Z,8.18
2023-04-19T02:22:47.826Z,8.50
2023-04-19T02:25:15.676Z,9.00
2023-04-19T02:27:42.667Z,10.02
2023-04-19T02:30:09.975Z,9.20
2023-04-19T02:32:36.927Z,9.50
2023-04-19T02:35:06.913Z,10.15
2023-04-19T02:37:33.672Z,9.60
2023-04-19T02:40:00.636Z,9.90
2023-04-19T02:42:29.218Z,9.18
2023-04-19T02:44:56.189Z,9.30
2023-04-19T02:47:24.702Z,9.75
2023-04-19T02:49:51.585Z,10.23
2023-04-19T02:52:19.495Z,9.30
2023-04-19T02:54:46.392Z,9.45
2023-04-19T02:57:13.318Z,9.30
2023-04-19T02:59:42.385Z,9.25
2023-04-19T03:02:09.293Z,8.85
2023-04-19T03:04:36.577Z,9.50
2023-04-19T03:07:03.709Z,9.60
2023-04-19T03:09:31.077Z,10.45
2023-04-19T03:11:58.168Z,10.20
2023-04-19T03:14:25.036Z,9.35
2023-04-19T03:16:52.314Z,9.55
2023-04-19T03:19:19.381Z,10.63
2023-04-19T03:21:50.414Z,10.77
2023-04-19T03:24:31.755Z,11.77
2023-04-19T03:27:05.420Z,10.68
2023-04-19T03:29:32.300Z,10.15
2023-04-19T03:32:09.344Z,10.27
2023-04-19T03:34:36.476Z,9.68
2023-04-19T03:37:03.406Z,10.27
2023-04-19T03:39:32.275Z,10.57
2023-04-19T03:42:03.597Z,10.45
2023-04-19T03:44:47.616Z,9.82
2023-04-19T03:47:17.100Z,10.07
2023-04-19T03:49:47.008Z,10.13
2023-04-19T03:52:14.016Z,9.32
2023-04-19T03:54:40.831Z,10.15
2023-04-19T03:57:17.633Z,9.27
2023-04-19T03:59:44.568Z,9.02
2023-04-19T04:02:11.787Z,10.38
2023-04-19T04:04:39.181Z,10.18
2023-04-19T04:07:07.884Z,10.55
2023-04-19T04:09:34.809Z,10.50
2023-04-19T04:12:02.970Z,11.25
2023-04-19T04:14:31.017Z,11.15
2023-04-19T04:16:58.908Z,10.48
2023-04-19T04:19:26.142Z,9.75
2023-04-19T04:21:53.108Z,9.98
2023-04-19T04:24:22.261Z,10.23
2023-04-19T04:27:05.805Z,10.20
2023-04-19T04:29:36.765Z,9.77
2023-04-19T04:32:10.583Z,9.48
2023-04-19T04:34:42.639Z,8.68
2023-04-19T04:37:13.653Z,10.25
2023-04-19T04:39:41.340Z,10.07
2023-04-19T04:42:10.050Z,10.55
2023-04-19T04:44:37.289Z,9.20
2023-04-19T04:47:04.663Z,10.90
2023-04-19T04:49:37.669Z,10.82
2023-04-19T04:52:04.834Z,9.82
2023-04-19T04:54:36.836Z,11.05
2023-04-19T04:57:04.885Z,10.02
2023-04-19T04:59:31.726Z,10.57
2023-04-19T05:01:59.009Z,9.77
2023-04-19T05:04:26.045Z,10.45
2023-04-19T05:06:52.939Z,10.05
2023-04-19T05:09:24.635Z,10.18
2023-04-19T05:11:51.660Z,9.50
2023-04-19T05:14:18.791Z,9.50
2023-04-19T05:16:46.252Z,9.63
2023-04-19T05:19:13.142Z,10.52
2023-04-19T05:21:45.673Z,10.13
2023-04-19T05:24:14.237Z,9.25
2023-04-19T05:26:41.684Z,10.13
2023-04-19T05:29:09.762Z,9.80
2023-04-19T05:31:45.560Z,10.32
2023-04-19T05:34:23.093Z,11.60
2023-04-19T05:36:50.782Z,10.90
2023-04-19T05:39:17.638Z,10.80
2023-04-19T05:41:44.538Z,11.05
2023-04-19T05:44:11.348Z,11.05
2023-04-19T05:46:38.330Z,11.57
2023-04-19T05:49:07.174Z,11.07
2023-04-19T05:51:54.540Z,11.75
2023-04-19T05:54:36.012Z,11.30
2023-04-19T05:57:04.152Z,11.05
2023-04-19T05:59:31.276Z,11.93
2023-04-19T06:01:58.363Z,11.50
2023-04-19T06:04:25.440Z,13.00
2023-04-19T06:06:52.435Z,13.30
2023-04-19T06:09:19.441Z,12.48
2023-04-19T06:11:50.610Z,13.13
2023-04-19T06:14:19.114Z,12.52
2023-04-19T06:16:46.640Z,13.30
2023-04-19T06:19:13.688Z,13.55
2023-04-19T06:21:40.624Z,13.75
2023-04-19T06:24:07.852Z,13.13
2023-04-19T06:26:34.892Z,15.02
2023-04-19T06:29:01.750Z,13.60
2023-04-19T06:31:28.746Z,13.02
2023-04-19T06:33:55.778Z,12.15
2023-04-19T06:36:22.670Z,12.23
2023-04-19T06:38:50.359Z,11.98
2023-04-19T06:41:17.765Z,12.45
2023-04-19T06:43:44.977Z,13.00
2023-04-19T06:46:14.040Z,12.15
2023-04-19T06:48:41.268Z,12.17
2023-04-19T06:51:08.364Z,12.82
2023-04-19T06:53:35.744Z,12.27
2023-04-19T06:56:06.872Z,11.60
2023-04-19T06:58:35.182Z,12.60
2023-04-19T07:01:04.492Z,13.73
2023-04-19T07:03:31.879Z,12.70
2023-04-19T07:05:58.999Z,12.95
2023-04-19T07:08:32.275Z,12.43
2023-04-19T07:11:02.473Z,10.98
2023-04-19T07:13:29.321Z,11.65
2023-04-19T07:15:56.316Z,11.23
2023-04-19T07:18:23.184Z,11.50
2023-04-19T07:20:50.081Z,12.27
2023-04-19T07:23:17.135Z,12.00
2023-04-19T07:25:44.092Z,12.88
2023-04-19T07:28:11.098Z,13.10
2023-04-19T07:30:38.028Z,12.48
2023-04-19T07:33:05.115Z,12.40
2023-04-19T07:35:31.992Z,12.25
2023-04-19T07:37:58.870Z,12.15
2023-04-19T07:40:25.962Z,13.30
2023-04-19T07:42:55.722Z,11.40
2023-04-19T07:45:22.883Z,12.32
2023-04-19T07:47:49.676Z,12.93
2023-04-19T07:50:16.660Z,11.75
2023-04-19T07:52:43.616Z,12.20
2023-04-19T07:55:10.824Z,12.65
2023-04-19T07:57:37.584Z,13.35
2023-04-19T08:00:04.984Z,14.07
2023-04-19T08:02:48.829Z,12.05
2023-04-19T08:05:20.159Z,12.57
2023-04-19T08:07:47.515Z,11.77
2023-04-19T08:10:14.716Z,13.20
2023-04-19T08:12:50.731Z,12.73
2023-04-19T08:16:13.349Z,12.63
2023-04-19T08:18:15.690Z,12.68
2023-04-19T08:20:42.715Z,12.70
2023-04-19T08:23:21.497Z,12.35
2023-04-19T08:25:51.413Z,13.15
2023-04-19T08:28:19.156Z,13.40
2023-04-19T08:30:46.360Z,13.35
2023-04-19T08:33:13.247Z,13.75
2023-04-19T08:35:41.795Z,12.60
2023-04-19T08:38:09.524Z,14.48
2023-04-19T08:40:41.766Z,13.52
2023-04-19T08:43:08.770Z,13.90
2023-04-19T08:45:36.368Z,14.93
2023-04-19T08:48:04.473Z,14.65
2023-04-19T08:50:38.741Z,14.93
2023-04-19T08:53:24.705Z,15.48
2023-04-19T08:56:12.916Z,15.10
2023-04-19T08:59:03.839Z,15.57
2023-04-19T09:01:35.940Z,16.15
2023-04-19T09:04:21.665Z,15.90
2023-04-19T09:06:53.793Z,21.70
2023-04-19T09:11:57.946Z,16.35
2023-04-19T09:14:27.513Z,15.32
2023-04-19T09:16:54.908Z,15.27
2023-04-19T09:19:25.160Z,16.52
2023-04-19T09:21:54.533Z,16.45
2023-04-19T09:25:14.475Z,15.60
2023-04-19T09:27:43.960Z,15.32
2023-04-19T09:30:20.828Z,16.10
2023-04-19T09:32:54.990Z,16.13
2023-04-19T09:35:21.932Z,16.52
2023-04-19T09:38:06.084Z,17.60
2023-04-19T09:40:34.203Z,17.15
2023-04-19T09:45:46.474Z,17.58
2023-04-19T09:48:14.023Z,16.77
2023-04-19T09:51:05.868Z,16.65
2023-04-19T09:53:34.899Z,15.65
2023-04-19T09:56:03.941Z,16.45
2023-04-19T09:58:46.307Z,17.90
2023-04-19T10:01:20.079Z,16.33
2023-04-19T10:03:49.406Z,17.40
2023-04-19T10:08:50.228Z,17.92
2023-04-19T10:11:18.817Z,15.87
2023-04-19T10:13:48.546Z,16.45
2023-04-19T10:16:20.225Z,15.90
2023-04-19T10:18:50.649Z,17.58
2023-04-19T10:23:46.627Z,15.55
2023-04-19T10:26:13.465Z,17.67
2023-04-19T10:28:42.374Z,18.25
2023-04-19T10:31:15.391Z,17.52
2023-04-19T10:33:42.467Z,16.65
2023-04-19T10:36:11.735Z,17.92
2023-04-19T10:38:42.344Z,16.30
2023-04-19T10:41:15.414Z,17.13
2023-04-19T10:43:55.707Z,16.00
2023-04-19T10:46:22.973Z,15.38
2023-04-19T10:48:59.740Z,15.65
2023-04-19T10:51:33.904Z,16.13
2023-04-19T10:54:04.607Z,15.77
2023-04-19T10:56:35.637Z,14.75
2023-04-19T10:59:02.897Z,15.00
2023-04-19T11:01:40.019Z,15.48
2023-04-19T11:04:09.162Z,14.93
2023-04-19T11:06:38.372Z,15.43
2023-04-19T11:09:10.166Z,16.57
2023-04-19T11:11:37.375Z,15.15
2023-04-19T11:14:04.596Z,14.55
2023-04-19T11:19:05.456Z,15.18
2023-04-19T11:21:33.195Z,16.48
2023-04-19T11:24:08.150Z,15.70
2023-04-19T11:26:35.276Z,15.65
2023-04-19T11:29:02.245Z,15.98
2023-04-19T11:31:29.337Z,15.45
2023-04-19T11:34:00.035Z,15.13
2023-04-19T11:36:27.155Z,17.60
2023-04-19T11:38:54.265Z,15.60
2023-04-19T11:41:21.125Z,15.27
2023-04-19T11:43:48.628Z,13.90
2023-04-19T11:46:15.685Z,14.13
2023-04-19T11:48:53.329Z,13.57
2023-04-19T11:51:20.781Z,13.23
2023-04-19T11:53:47.737Z,13.60
2023-04-19T11:56:15.436Z,12.48
2023-04-19T11:58:45.067Z,16.08
2023-04-19T12:01:13.793Z,14.77
2023-04-19T12:03:44.660Z,14.90
2023-04-19T12:06:22.266Z,14.65
2023-04-19T12:08:51.165Z,14.35
2023-04-19T12:11:21.640Z,14.10
2023-04-19T12:13:48.981Z,13.45
2023-04-19T12:16:28.176Z,13.98
2023-04-19T12:18:55.251Z,14.02
2023-04-19T12:21:31.086Z,14.55
2023-04-19T12:23:59.483Z,15.25
2023-04-19T12:26:30.497Z,14.00
2023-04-19T12:28:58.902Z,14.48
2023-04-19T12:31:26.116Z,15.02
2023-04-19T12:33:53.387Z,15.07
2023-04-19T12:36:21.060Z,11.00
2023-04-19T12:38:47.890Z,11.30
2023-04-19T12:41:14.951Z,10.93
2023-04-19T12:43:41.826Z,11.70
2023-04-19T12:46:08.761Z,11.65
2023-04-19T12:48:35.996Z,11.10
2023-04-19T12:51:03.548Z,10.77
2023-04-19T12:53:30.502Z,11.52
2023-04-19T12:55:57.330Z,11.18
2023-04-19T12:58:25.076Z,9.98
2023-04-19T13:00:51.933Z,10.98
2023-04-19T13:03:18.924Z,10.02
2023-04-19T13:05:45.851Z,10.35
2023-04-19T13:08:12.695Z,8.57
2023-04-19T13:10:39.591Z,9.35
2023-04-19T13:13:06.406Z,8.52
2023-04-19T13:15:33.370Z,8.15
2023-04-19T13:18:00.260Z,8.40
2023-04-19T13:20:27.166Z,8.75
2023-04-19T13:22:54.034Z,8.60
2023-04-19T13:25:20.944Z,8.82
2023-04-19T13:27:47.747Z,11.40
2023-04-19T13:30:15.128Z,11.65
2023-04-19T13:32:42.008Z,10.85
2023-04-19T13:35:09.267Z,10.20
2023-04-19T13:37:36.141Z,9.50
2023-04-19T13:40:18.319Z,9.60
2023-04-19T13:42:46.495Z,9.70
2023-04-19T13:45:14.551Z,9.77
2023-04-19T13:47:41.458Z,9.82
2023-04-19T13:50:08.697Z,8.90
2023-04-19T13:52:35.730Z,8.73
2023-04-19T13:55:02.652Z,9.43
2023-04-19T13:57:29.587Z,8.18
2023-04-19T13:59:56.440Z,8.30
2023-04-19T14:02:23.531Z,8.43
2023-04-19T14:04:50.653Z,8.18
2023-04-19T14:07:17.497Z,7.30
2023-04-19T14:09:44.742Z,6.22
2023-04-19T14:12:11.759Z,7.45
2023-04-19T14:14:38.544Z,7.10
2023-04-19T14:17:05.483Z,6.55
2023-04-19T14:19:32.329Z,7.22
2023-04-19T14:21:59.275Z,7.22
2023-04-19T14:24:26.149Z,7.13
2023-04-19T14:27:09.114Z,7.35
2023-04-19T14:29:37.552Z,7.05
2023-04-19T14:32:20.891Z,7.47
2023-04-19T14:34:51.718Z,8.32
2023-04-19T14:37:19.002Z,7.95
2023-04-19T14:39:46.523Z,8.15
2023-04-19T14:42:13.781Z,8.05
2023-04-19T14:44:41.229Z,8.73
2023-04-19T14:47:08.187Z,8.63
2023-04-19T14:49:35.157Z,8.07
2023-04-19T14:52:01.975Z,8.73
2023-04-19T14:54:29.684Z,7.90
2023-04-19T14:56:56.581Z,8.10
2023-04-19T14:59:23.486Z,7.78
2023-04-19T15:01:50.455Z,7.88
2023-04-19T15:04:17.516Z,7.55
2023-04-19T15:06:44.510Z,7.25
2023-04-19T15:09:11.591Z,7.85
2023-04-19T15:11:38.452Z,7.05
2023-04-19T15:14:05.258Z,7.13
2023-04-19T15:16:32.258Z,6.72
2023-04-19T15:18:59.140Z,7.22
2023-04-19T15:21:26.329Z,7.00
2023-04-19T15:23:54.605Z,7.30
2023-04-19T15:26:29.914Z,7.45
2023-04-19T15:29:05.327Z,6.93
2023-04-19T15:31:41.379Z,6.50
2023-04-19T15:34:15.451Z,7.30
2023-04-19T15:36:43.134Z,6.97
2023-04-19T15:39:09.927Z,7.15
2023-04-19T15:41:36.829Z,6.80
2023-04-19T15:44:03.628Z,7.00
2023-04-19T15:46:30.644Z,6.45
2023-04-19T15:48:57.529Z,6.85
2023-04-19T15:51:24.409Z,7.43
2023-04-19T15:53:52.133Z,7.43
2023-04-19T15:56:18.915Z,7.18
2023-04-19T15:58:45.752Z,7.28
2023-04-19T16:01:13.200Z,8.10
2023-04-19T16:03:41.319Z,8.75
2023-04-19T16:06:08.378Z,7.82
2023-04-19T16:08:35.366Z,9.13
2023-04-19T16:11:02.319Z,9.18
2023-04-19T16:13:31.337Z,9.73
2023-04-19T16:15:58.520Z,8.95
2023-04-19T16:18:25.545Z,8.68
2023-04-19T16:20:53.908Z,8.15
2023-04-19T16:23:20.845Z,8.35
2023-04-19T16:25:47.835Z,8.35
2023-04-19T16:28:14.673Z,8.50
2023-04-19T16:30:41.599Z,8.05
2023-04-19T16:33:08.513Z,8.48
2023-04-19T16:35:35.607Z,8.55
2023-04-19T16:38:04.447Z,8.48
2023-04-19T16:40:31.314Z,7.63
2023-04-19T16:42:58.165Z,7.20
2023-04-19T16:45:25.407Z,7.60
2023-04-19T16:47:52.747Z,7.93
2023-04-19T16:50:20.563Z,7.43
2023-04-19T16:52:47.483Z,7.45
2023-04-19T16:55:14.823Z,7.32
2023-04-19T16:57:41.685Z,6.85
2023-04-19T17:00:09.840Z,6.95
2023-04-19T17:02:37.028Z,6.78
2023-04-19T17:05:04.384Z,6.72
2023-04-19T17:07:31.281Z,6.15
2023-04-19T17:09:58.961Z,5.63
2023-04-19T17:12:25.940Z,6.20
2023-04-19T17:14:52.812Z,6.50
2023-04-19T17:17:20.126Z,6.25
2023-04-19T17:19:47.223Z,6.10
2023-04-19T17:22:14.930Z,5.22
2023-04-19T17:24:42.189Z,5.97
2023-04-19T17:27:09.470Z,6.53
2023-04-19T17:29:36.778Z,6.18
2023-04-19T17:32:04.108Z,6.45
2023-04-19T17:34:30.976Z,6.72
2023-04-19T17:36:57.867Z,5.97
2023-04-19T17:39:27.726Z,6.82
2023-04-19T17:41:56.076Z,7.82
2023-04-19T17:44:23.427Z,6.60
2023-04-19T17:46:50.442Z,5.70
2023-04-19T17:49:19.999Z,6.90
2023-04-19T17:51:47.415Z,6.78
2023-04-19T17:54:15.851Z,7.18
2023-04-19T17:56:42.857Z,6.60
2023-04-19T17:59:09.839Z,7.38
2023-04-19T18:01:36.878Z,6.00
2023-04-19T18:04:04.506Z,6.20
2023-04-19T18:06:31.815Z,5.88
2023-04-19T18:08:58.941Z,6.50
2023-04-19T18:11:28.178Z,6.85
2023-04-19T18:13:55.609Z,6.20
2023-04-19T18:16:22.474Z,6.32
2023-04-19T18:18:49.443Z,6.32
2023-04-19T18:21:17.006Z,6.95
2023-04-19T18:23:43.943Z,6.63
2023-04-19T18:26:10.750Z,6.68
2023-04-19T18:28:37.721Z,6.72
2023-04-19T18:31:05.436Z,6.35
2023-04-19T18:33:32.509Z,7.07
2023-04-19T18:35:59.519Z,5.93
2023-04-19T18:38:26.379Z,6.07
2023-04-19T18:40:53.189Z,5.75
2023-04-19T18:43:20.346Z,6.13
2023-04-19T18:45:54.536Z,5.95
2023-04-19T18:48:22.343Z,5.88
2023-04-19T18:50:49.176Z,6.03
2023-04-19T18:53:16.032Z,6.32
2023-04-19T18:55:42.903Z,6.43
2023-04-19T18:58:09.798Z,6.38
2023-04-19T19:00:36.700Z,7.07
2023-04-19T19:03:04.248Z,7.90
2023-04-19T19:05:31.271Z,7.20
2023-04-19T19:07:58.374Z,7.93
2023-04-19T19:10:54.212Z,7.00
2023-04-19T19:13:12.173Z,7.03
2023-04-19T19:15:42.321Z,6.88
2023-04-19T19:18:09.270Z,6.90
2023-04-19T19:20:36.314Z,6.40
2023-04-19T19:23:03.348Z,6.47
2023-04-19T19:25:30.182Z,6.88
2023-04-19T19:28:07.348Z,6.68
2023-04-19T19:30:39.771Z,6.40
2023-04-19T19:33:07.041Z,6.28
2023-04-19T19:35:33.942Z,7.72
2023-04-19T19:38:00.942Z,6.53
2023-04-19T19:40:31.149Z,6.38
2023-04-19T19:43:00.150Z,5.82
2023-04-19T19:45:28.592Z,6.10
2023-04-19T19:47:55.543Z,6.85
2023-04-19T19:55:19.338Z,6.82
2023-04-19T20:00:42.062Z,7.32
2023-04-19T20:03:06.029Z,7.55
2023-04-19T20:05:33.930Z,7.57
2023-04-19T20:08:10.320Z,7.72
2023-04-19T20:10:38.464Z,7.38
2023-04-19T20:13:08.094Z,6.80
2023-04-19T20:15:38.292Z,7.18
2023-04-19T20:18:05.923Z,6.45
2023-04-19T20:20:32.905Z,7.00
2023-04-19T20:22:59.743Z,7.10
2023-04-19T20:25:26.792Z,6.85
2023-04-19T20:27:54.286Z,7.55
2023-04-19T20:30:21.185Z,6.75
2023-04-19T20:32:50.241Z,7.30
2023-04-19T20:35:17.357Z,6.63
2023-04-19T20:37:44.492Z,7.25
2023-04-19T20:40:14.436Z,7.15
2023-04-19T20:42:41.589Z,6.82
2023-04-19T20:45:12.772Z,6.25
2023-04-19T20:47:40.281Z,6.82
2023-04-19T20:50:08.145Z,7.00
2023-04-19T20:52:35.670Z,6.15
2023-04-19T20:55:02.621Z,6.75
2023-04-19T20:57:29.458Z,6.18
2023-04-19T20:59:56.283Z,6.03
2023-04-19T21:02:23.181Z,6.63
2023-04-19T21:04:50.243Z,6.18
2023-04-19T21:07:17.028Z,6.15
2023-04-19T21:09:43.965Z,6.38
2023-04-19T21:12:10.899Z,6.70
2023-04-19T21:14:37.735Z,6.97
2023-04-19T21:17:04.638Z,6.93
2023-04-19T21:19:31.520Z,6.20
2023-04-19T21:21:58.948Z,7.28
2023-04-19T21:24:26.252Z,7.53
2023-04-19T21:26:53.278Z,6.95
2023-04-19T21:29:20.854Z,6.70
2023-04-19T21:31:47.895Z,7.72
2023-04-19T21:34:14.851Z,8.05
2023-04-19T21:36:41.883Z,8.00
2023-04-19T21:39:10.017Z,7.68
2023-04-19T21:41:37.561Z,8.05
2023-04-19T21:44:04.627Z,7.75
2023-04-19T21:46:32.055Z,7.50
2023-04-19T21:48:59.265Z,6.82
2023-04-19T21:51:26.162Z,8.15
2023-04-19T21:53:52.999Z,7.95
2023-04-19T21:56:19.837Z,8.10
2023-04-19T21:58:47.281Z,8.00
2023-04-19T22:01:14.242Z,7.85
2023-04-19T22:03:41.268Z,8.20
2023-04-19T22:06:08.556Z,6.97
2023-04-19T22:08:35.651Z,7.93
2023-04-19T22:11:02.483Z,7.13
2023-04-19T22:13:30.200Z,8.00
2023-04-19T22:15:57.295Z,7.15
2023-04-19T22:18:24.352Z,7.55
2023-04-19T22:20:53.197Z,7.50
2023-04-19T22:23:20.230Z,6.43
2023-04-19T22:25:47.082Z,7.25
2023-04-19T22:28:13.901Z,6.90
2023-04-19T22:30:40.857Z,6.85
2023-04-19T22:33:07.815Z,7.05
2023-04-19T22:35:34.720Z,6.10
2023-04-19T22:38:01.532Z,7.03
2023-04-19T22:40:28.390Z,7.53
2023-04-19T22:42:55.654Z,6.30
2023-04-19T22:45:22.534Z,5.53
2023-04-19T22:47:49.388Z,6.65
2023-04-19T22:50:16.419Z,6.30
2023-04-19T22:52:44.608Z,5.90
2023-04-19T22:55:11.750Z,6.32
2023-04-19T22:57:38.560Z,6.05
2023-04-19T23:00:06.947Z,6.20
2023-04-19T23:02:33.914Z,6.13
2023-04-19T23:05:00.922Z,6.60
2023-04-19T23:07:28.927Z,6.30
2023-04-19T23:09:56.183Z,5.93
2023-04-19T23:12:24.054Z,6.95
2023-04-19T23:14:51.113Z,5.53
2023-04-19T23:17:18.320Z,6.22
2023-04-19T23:19:45.196Z,6.40
2023-04-19T23:22:12.036Z,5.63
2023-04-19T23:24:38.903Z,6.05
2023-04-19T23:27:05.731Z,5.75
2023-04-19T23:29:32.655Z,5.95
2023-04-19T23:32:01.131Z,5.68
2023-04-19T23:34:28.117Z,5.63
2023-04-19T23:36:55.039Z,5.82
2023-04-19T23:39:21.987Z,5.85
2023-04-19T23:41:48.795Z,5.55
2023-04-19T23:44:15.742Z,6.22
2023-04-19T23:46:42.641Z,5.90
2023-04-19T23:49:09.514Z,6.15
2023-04-19T23:51:36.427Z,5.90
2023-04-19T23:54:03.295Z,5.97
2023-04-19T23:56:30.413Z,5.40
2023-04-19T23:58:57.535Z,5.80
